createdAt,value
2024-04-12T00:00:16.210Z,448.00
2024-04-12T00:01:16.156Z,448.00
2024-04-12T00:02:32.066Z,446.00
2024-04-12T00:03:16.195Z,446.00
2024-04-12T00:04:16.148Z,447.00
2024-04-12T00:05:16.160Z,450.00
2024-04-12T00:06:16.196Z,451.00
2024-04-12T00:07:18.007Z,449.00
2024-04-12T00:08:16.142Z,448.00
2024-04-12T00:09:16.147Z,449.00
2024-04-12T00:10:16.135Z,449.00
2024-04-12T00:11:16.176Z,450.00
2024-04-12T00:12:16.241Z,451.00
2024-04-12T00:13:16.155Z,452.00
2024-04-12T00:14:16.153Z,453.00
2024-04-12T00:15:16.179Z,454.00
2024-04-12T00:16:16.188Z,454.00
2024-04-12T00:17:16.147Z,453.00
2024-04-12T00:18:17.136Z,454.00
2024-04-12T00:19:16.187Z,454.00
2024-04-12T00:20:16.157Z,455.00
2024-04-12T00:21:24.015Z,454.00
2024-04-12T00:22:16.260Z,454.00
2024-04-12T00:23:16.167Z,453.00
2024-04-12T00:24:19.002Z,451.00
2024-04-12T00:25:16.176Z,454.00
2024-04-12T00:26:16.159Z,456.00
2024-04-12T00:27:23.511Z,457.00
2024-04-12T00:28:16.172Z,457.00
2024-04-12T00:29:16.161Z,458.00
2024-04-12T00:30:42.533Z,457.00
2024-04-12T00:31:16.178Z,456.00
2024-04-12T00:32:16.208Z,457.00
2024-04-12T00:33:16.317Z,459.00
2024-04-12T00:34:16.246Z,458.00
2024-04-12T00:35:16.195Z,460.00
2024-04-12T00:36:16.282Z,458.00
2024-04-12T00:37:16.298Z,457.00
2024-04-12T00:38:16.311Z,457.00
2024-04-12T00:39:16.360Z,457.00
2024-04-12T00:40:16.446Z,457.00
2024-04-12T00:41:16.467Z,455.00
2024-04-12T00:42:16.490Z,454.00
2024-04-12T00:43:16.547Z,452.00
2024-04-12T00:44:16.583Z,452.00
2024-04-12T00:45:16.738Z,451.00
2024-04-12T00:46:16.658Z,449.00
2024-04-12T00:47:16.726Z,453.00
2024-04-12T00:48:16.839Z,454.00
2024-04-12T00:49:16.786Z,453.00
2024-04-12T00:50:16.824Z,452.00
2024-04-12T00:51:16.890Z,450.00
2024-04-12T00:52:31.512Z,450.00
2024-04-12T00:53:17.309Z,452.00
2024-04-12T00:54:17.152Z,455.00
2024-04-12T00:55:32.026Z,455.00
2024-04-12T00:56:17.226Z,455.00
2024-04-12T00:57:17.174Z,457.00
2024-04-12T00:58:17.178Z,459.00
2024-04-12T00:59:17.186Z,459.00
2024-04-12T01:00:17.205Z,459.00
2024-04-12T01:01:17.373Z,460.00
2024-04-12T01:02:17.223Z,457.00
2024-04-12T01:03:17.261Z,454.00
2024-04-12T01:04:17.242Z,453.00
2024-04-12T01:05:17.195Z,454.00
2024-04-12T01:06:17.213Z,453.00
2024-04-12T01:07:17.191Z,450.00
2024-04-12T01:08:17.195Z,450.00
2024-04-12T01:09:17.199Z,449.00
2024-04-12T01:10:17.200Z,449.00
2024-04-12T01:11:17.248Z,448.00
2024-04-12T01:12:17.208Z,450.00
2024-04-12T01:13:17.213Z,453.00
2024-04-12T01:14:32.075Z,455.00
2024-04-12T01:15:17.217Z,454.00
2024-04-12T01:16:17.219Z,454.00
2024-04-12T01:17:20.182Z,452.00
2024-04-12T01:18:17.322Z,452.00
2024-04-12T01:19:17.211Z,451.00
2024-04-12T01:20:24.024Z,452.00
2024-04-12T01:21:17.267Z,453.00
2024-04-12T01:22:17.224Z,454.00
2024-04-12T01:23:53.087Z,452.00
2024-04-12T01:24:17.222Z,450.00
2024-04-12T01:25:17.216Z,452.00
2024-04-12T01:26:17.231Z,452.00
2024-04-12T01:27:17.228Z,453.00
2024-04-12T01:28:17.464Z,454.00
2024-04-12T01:29:17.231Z,453.00
2024-04-12T01:30:17.241Z,452.00
2024-04-12T01:31:17.230Z,452.00
2024-04-12T01:32:17.284Z,451.00
2024-04-12T01:33:17.382Z,452.00
2024-04-12T01:34:17.238Z,453.00
2024-04-12T01:35:17.229Z,457.00
2024-04-12T01:36:17.239Z,456.00
2024-04-12T01:37:17.309Z,454.00
2024-04-12T01:38:17.245Z,453.00
2024-04-12T01:39:20.039Z,454.00
2024-04-12T01:40:17.238Z,454.00
2024-04-12T01:41:17.241Z,455.00
2024-04-12T01:42:17.237Z,457.00
2024-04-12T01:43:17.241Z,460.00
2024-04-12T01:44:17.248Z,461.00
2024-04-12T01:45:20.045Z,461.00
2024-04-12T01:46:17.260Z,458.00
2024-04-12T01:47:17.251Z,455.00
2024-04-12T01:48:41.765Z,457.00
2024-04-12T01:49:17.264Z,457.00
2024-04-12T01:50:17.259Z,456.00
2024-04-12T01:51:31.557Z,456.00
2024-04-12T01:52:17.259Z,455.00
2024-04-12T01:53:17.263Z,454.00
2024-04-12T01:54:17.262Z,456.00
2024-04-12T01:55:17.272Z,454.00
2024-04-12T01:56:17.276Z,453.00
2024-04-12T01:57:17.309Z,455.00
2024-04-12T01:58:17.356Z,455.00
2024-04-12T01:59:17.419Z,456.00
2024-04-12T02:00:17.503Z,455.00
2024-04-12T02:01:17.621Z,456.00
2024-04-12T02:02:17.550Z,452.00
2024-04-12T02:03:17.628Z,453.00
2024-04-12T02:04:17.683Z,452.00
2024-04-12T02:05:17.706Z,454.00
2024-04-12T02:06:18.295Z,461.00
2024-04-12T02:07:28.558Z,464.00
2024-04-12T02:08:17.868Z,462.00
2024-04-12T02:09:17.768Z,462.00
2024-04-12T02:10:18.562Z,460.00
2024-04-12T02:11:17.820Z,459.00
2024-04-12T02:12:17.796Z,457.00
2024-04-12T02:13:32.557Z,460.00
2024-04-12T02:14:17.783Z,457.00
2024-04-12T02:15:17.781Z,456.00
2024-04-12T02:16:40.575Z,457.00
2024-04-12T02:17:17.782Z,456.00
2024-04-12T02:18:17.817Z,458.00
2024-04-12T02:19:17.923Z,460.00
2024-04-12T02:20:17.801Z,461.00
2024-04-12T02:21:17.842Z,462.00
2024-04-12T02:22:17.791Z,462.00
2024-04-12T02:23:17.789Z,463.00
2024-04-12T02:24:17.793Z,463.00
2024-04-12T02:25:17.814Z,464.00
2024-04-12T02:26:17.819Z,463.00
2024-04-12T02:27:17.796Z,462.00
2024-04-12T02:28:17.806Z,460.00
2024-04-12T02:29:17.792Z,457.00
2024-04-12T02:30:17.854Z,458.00
2024-04-12T02:31:17.809Z,460.00
2024-04-12T02:32:17.867Z,461.00
2024-04-12T02:33:18.168Z,463.00
2024-04-12T02:34:17.929Z,467.00
2024-04-12T02:35:32.611Z,466.00
2024-04-12T02:36:18.376Z,467.00
2024-04-12T02:37:18.226Z,468.00
2024-04-12T02:38:33.248Z,467.00
2024-04-12T02:39:18.253Z,466.00
2024-04-12T02:40:18.259Z,467.00
2024-04-12T02:41:39.555Z,463.00
2024-04-12T02:42:18.261Z,461.00
2024-04-12T02:43:18.272Z,460.00
2024-04-12T02:44:54.115Z,460.00
2024-04-12T02:45:18.267Z,462.00
2024-04-12T02:46:18.269Z,463.00
2024-04-12T02:47:18.297Z,464.00
2024-04-12T02:48:18.367Z,464.00
2024-04-12T02:49:18.278Z,464.00
2024-04-12T02:50:18.287Z,462.00
2024-04-12T02:51:18.282Z,462.00
2024-04-12T02:52:18.277Z,461.00
2024-04-12T02:53:18.279Z,464.00
2024-04-12T02:54:18.383Z,466.00
2024-04-12T02:55:18.283Z,465.00
2024-04-12T02:56:18.290Z,464.00
2024-04-12T02:57:18.288Z,462.00
2024-04-12T02:58:18.280Z,466.00
2024-04-12T02:59:18.281Z,468.00
2024-04-12T03:00:25.092Z,469.00
2024-04-12T03:01:18.310Z,468.00
2024-04-12T03:02:18.358Z,467.00
2024-04-12T03:03:34.655Z,467.00
2024-04-12T03:04:18.296Z,468.00
2024-04-12T03:05:18.288Z,470.00
2024-04-12T03:06:21.610Z,470.00
2024-04-12T03:07:18.302Z,470.00
2024-04-12T03:08:18.307Z,468.00
2024-04-12T03:09:34.621Z,470.00
2024-04-12T03:10:18.321Z,469.00
2024-04-12T03:11:18.327Z,475.00
2024-04-12T03:12:18.409Z,471.00
2024-04-12T03:13:18.316Z,469.00
2024-04-12T03:14:18.320Z,466.00
2024-04-12T03:15:18.316Z,463.00
2024-04-12T03:16:18.337Z,462.00
2024-04-12T03:17:18.325Z,457.00
2024-04-12T03:18:18.384Z,455.00
2024-04-12T03:19:18.330Z,459.00
2024-04-12T03:20:18.329Z,460.00
2024-04-12T03:21:18.332Z,459.00
2024-04-12T03:22:18.325Z,457.00
2024-04-12T03:23:18.324Z,455.00
2024-04-12T03:24:18.374Z,458.00
2024-04-12T03:25:18.331Z,459.00
2024-04-12T03:26:18.336Z,458.00
2024-04-12T03:27:18.358Z,458.00
2024-04-12T03:28:33.095Z,460.00
2024-04-12T03:29:18.702Z,461.00
2024-04-12T03:30:18.323Z,462.00
2024-04-12T03:31:32.618Z,464.00
2024-04-12T03:32:18.345Z,466.00
2024-04-12T03:33:18.416Z,465.00
2024-04-12T03:34:39.427Z,467.00
2024-04-12T03:35:18.402Z,468.00
2024-04-12T03:36:18.348Z,467.00
2024-04-12T03:37:54.098Z,469.00
2024-04-12T03:38:18.350Z,469.00
2024-04-12T03:39:18.355Z,467.00
2024-04-12T03:40:18.421Z,469.00
2024-04-12T03:41:18.362Z,469.00
2024-04-12T03:42:18.439Z,467.00
2024-04-12T03:43:18.355Z,464.00
2024-04-12T03:44:18.360Z,466.00
2024-04-12T03:45:18.478Z,470.00
2024-04-12T03:46:18.355Z,471.00
2024-04-12T03:47:18.362Z,472.00
2024-04-12T03:48:18.466Z,469.00
2024-04-12T03:49:18.356Z,466.00
2024-04-12T03:50:18.356Z,464.00
2024-04-12T03:51:18.403Z,463.00
2024-04-12T03:52:18.364Z,463.00
2024-04-12T03:53:18.372Z,463.00
2024-04-12T03:54:18.371Z,463.00
2024-04-12T03:55:18.366Z,464.00
2024-04-12T03:56:20.145Z,466.00
2024-04-12T03:57:18.466Z,466.00
2024-04-12T03:58:18.498Z,466.00
2024-04-12T03:59:33.141Z,468.00
2024-04-12T04:00:18.440Z,466.00
2024-04-12T04:01:18.388Z,464.00
2024-04-12T04:02:41.659Z,463.00
2024-04-12T04:03:18.383Z,463.00
2024-04-12T04:04:18.386Z,464.00
2024-04-12T04:05:18.396Z,465.00
2024-04-12T04:06:18.412Z,462.00
2024-04-12T04:07:19.808Z,461.00
2024-04-12T04:08:18.622Z,462.00
2024-04-12T04:09:18.480Z,464.00
2024-04-12T04:10:18.520Z,464.00
2024-04-12T04:11:18.599Z,466.00
2024-04-12T04:12:19.386Z,466.00
2024-04-12T04:13:18.669Z,468.00
2024-04-12T04:14:18.716Z,467.00
2024-04-12T04:15:18.856Z,469.00
2024-04-12T04:16:18.823Z,467.00
2024-04-12T04:17:18.968Z,468.00
2024-04-12T04:18:25.678Z,468.00
2024-04-12T04:19:19.140Z,468.00
2024-04-12T04:20:18.927Z,471.00
2024-04-12T04:21:26.628Z,471.00
2024-04-12T04:22:18.932Z,471.00
2024-04-12T04:23:18.932Z,470.00
2024-04-12T04:24:18.933Z,468.00
2024-04-12T04:25:18.930Z,471.00
2024-04-12T04:26:18.933Z,471.00
2024-04-12T04:27:40.042Z,469.00
2024-04-12T04:28:18.940Z,469.00
2024-04-12T04:29:18.929Z,471.00
2024-04-12T04:30:54.626Z,470.00
2024-04-12T04:31:19.753Z,468.00
2024-04-12T04:32:19.123Z,468.00
2024-04-12T04:33:19.067Z,469.00
2024-04-12T04:34:18.947Z,472.00
2024-04-12T04:35:18.945Z,474.00
2024-04-12T04:36:18.948Z,475.00
2024-04-12T04:37:23.333Z,478.00
2024-04-12T04:38:19.956Z,476.00
2024-04-12T04:39:18.983Z,475.00
2024-04-12T04:40:19.963Z,473.00
2024-04-12T04:41:18.955Z,472.00
2024-04-12T04:42:18.958Z,472.00
2024-04-12T04:43:18.958Z,469.00
2024-04-12T04:44:18.990Z,471.00
2024-04-12T04:45:19.328Z,468.00
2024-04-12T04:46:18.961Z,467.00
2024-04-12T04:47:18.959Z,468.00
2024-04-12T04:48:19.182Z,471.00
2024-04-12T04:49:19.060Z,475.00
2024-04-12T04:50:18.955Z,476.00
2024-04-12T04:51:19.042Z,474.00
2024-04-12T04:52:26.393Z,489.00
2024-04-12T04:53:26.359Z,486.00
2024-04-12T04:54:26.372Z,485.00
2024-04-12T04:55:47.384Z,487.00
2024-04-12T04:56:26.369Z,484.00
2024-04-12T04:57:26.359Z,484.00
2024-04-12T04:58:40.965Z,483.00
2024-04-12T04:59:26.579Z,484.00
2024-04-12T05:00:26.639Z,488.00
2024-04-12T05:01:26.667Z,488.00
2024-04-12T05:02:26.671Z,487.00
2024-04-12T05:03:26.759Z,488.00
2024-04-12T05:04:26.703Z,487.00
2024-04-12T05:05:27.428Z,485.00
2024-04-12T05:06:26.785Z,483.00
2024-04-12T05:07:26.786Z,480.00
2024-04-12T05:08:26.815Z,481.00
2024-04-12T05:09:26.844Z,481.00
2024-04-12T05:10:27.290Z,477.00
2024-04-12T05:11:26.987Z,476.00
2024-04-12T05:12:27.049Z,476.00
2024-04-12T05:13:27.128Z,475.00
2024-04-12T05:14:26.987Z,475.00
2024-04-12T05:15:26.999Z,477.00
2024-04-12T05:16:27.037Z,480.00
2024-04-12T05:17:30.532Z,483.00
2024-04-12T05:18:27.128Z,483.00
2024-04-12T05:19:27.079Z,483.00
2024-04-12T05:20:42.113Z,485.00
2024-04-12T05:21:27.058Z,485.00
2024-04-12T05:22:27.069Z,487.00
2024-04-12T05:23:55.008Z,486.00
2024-04-12T05:24:27.069Z,485.00
2024-04-12T05:25:27.070Z,486.00
2024-04-12T05:26:55.017Z,486.00
2024-04-12T05:27:27.083Z,485.00
2024-04-12T05:28:27.078Z,486.00
2024-04-12T05:29:27.099Z,489.00
2024-04-12T05:30:27.088Z,492.00
2024-04-12T05:31:27.091Z,501.00
2024-04-12T05:32:27.534Z,510.00
2024-04-12T05:33:27.163Z,519.00
2024-04-12T05:34:27.099Z,523.00
2024-04-12T05:35:27.088Z,529.00
2024-04-12T05:36:28.001Z,533.00
2024-04-12T05:37:27.492Z,541.00
2024-04-12T05:38:27.091Z,546.00
2024-04-12T05:39:27.164Z,608.00
2024-04-12T05:40:27.094Z,581.00
2024-04-12T05:41:27.094Z,597.00
2024-04-12T05:42:27.559Z,603.00
2024-04-12T05:43:27.096Z,601.00
2024-04-12T05:44:27.098Z,600.00
2024-04-12T05:45:41.991Z,610.00
2024-04-12T05:46:27.106Z,704.00
2024-04-12T05:47:27.143Z,713.00
2024-04-12T05:48:48.184Z,738.00
2024-04-12T05:49:27.115Z,752.00
2024-04-12T05:50:27.125Z,769.00
2024-04-12T05:51:48.164Z,783.00
2024-04-12T05:52:27.113Z,835.00
2024-04-12T05:53:27.121Z,861.00
2024-04-12T05:54:27.127Z,878.00
2024-04-12T05:55:27.112Z,894.00
2024-04-12T05:56:27.429Z,908.00
2024-04-12T05:57:27.502Z,921.00
2024-04-12T05:58:27.118Z,948.00
2024-04-12T05:59:27.126Z,964.00
2024-04-12T06:00:27.125Z,967.00
2024-04-12T06:01:27.318Z,964.00
2024-04-12T06:02:27.165Z,966.00
2024-04-12T06:03:27.177Z,970.00
2024-04-12T06:04:27.119Z,974.00
2024-04-12T06:05:27.133Z,992.00
2024-04-12T06:06:27.142Z,1011.00
2024-04-12T06:07:27.129Z,1024.00
2024-04-12T06:08:27.137Z,1027.00
2024-04-12T06:09:27.190Z,1035.00
2024-04-12T06:10:29.999Z,1040.00
2024-04-12T06:11:27.203Z,1059.00
2024-04-12T06:12:27.301Z,1076.00
2024-04-12T06:13:34.003Z,1085.00
2024-04-12T06:14:27.141Z,1087.00
2024-04-12T06:15:27.147Z,1095.00
2024-04-12T06:16:51.543Z,1113.00
2024-04-12T06:17:27.182Z,1138.00
2024-04-12T06:18:27.302Z,1163.00
2024-04-12T06:20:27.172Z,1169.00
2024-04-12T06:21:27.181Z,1170.00
2024-04-12T06:22:27.170Z,1180.00
2024-04-12T06:23:29.030Z,1194.00
2024-04-12T06:24:27.166Z,1194.00
2024-04-12T06:25:27.164Z,1179.00
2024-04-12T06:26:27.171Z,1176.00
2024-04-12T06:27:27.172Z,1176.00
2024-04-12T06:28:27.174Z,1187.00
2024-04-12T06:29:32.968Z,1198.00
2024-04-12T06:30:28.172Z,1228.00
2024-04-12T06:31:27.161Z,1237.00
2024-04-12T06:32:30.594Z,1170.00
2024-04-12T06:33:27.258Z,1178.00
2024-04-12T06:34:27.199Z,1197.00
2024-04-12T06:35:34.013Z,1191.00
2024-04-12T06:36:27.181Z,1192.00
2024-04-12T06:37:27.175Z,1204.00
2024-04-12T06:38:27.197Z,1214.00
2024-04-12T06:39:27.164Z,1264.00
2024-04-12T06:40:27.162Z,1343.00
2024-04-12T06:41:34.014Z,1333.00
2024-04-12T06:42:27.179Z,1318.00
2024-04-12T06:43:27.172Z,1319.00
2024-04-12T06:44:48.268Z,1381.00
2024-04-12T06:45:27.182Z,1382.00
2024-04-12T06:46:27.182Z,1375.00
2024-04-12T06:47:27.337Z,1369.00
2024-04-12T06:48:27.282Z,1365.00
2024-04-12T06:49:27.184Z,1360.00
2024-04-12T06:50:27.189Z,1356.00
2024-04-12T06:51:27.191Z,1350.00
2024-04-12T06:52:27.237Z,1309.00
2024-04-12T06:53:27.202Z,1331.00
2024-04-12T06:54:27.195Z,1335.00
2024-04-12T06:55:27.191Z,1339.00
2024-04-12T06:56:27.200Z,1338.00
2024-04-12T06:57:27.231Z,1383.00
2024-04-12T06:58:27.204Z,1369.00
2024-04-12T06:59:27.217Z,1365.00
2024-04-12T07:00:27.308Z,1376.00
2024-04-12T07:01:27.267Z,1379.00
2024-04-12T07:02:27.381Z,1364.00
2024-04-12T07:03:27.338Z,1355.00
2024-04-12T07:04:27.218Z,1348.00
2024-04-12T07:05:27.208Z,1344.00
2024-04-12T07:06:42.040Z,1340.00
2024-04-12T07:07:27.216Z,1337.00
2024-04-12T07:08:27.210Z,1322.00
2024-04-12T07:09:42.027Z,1302.00
2024-04-12T07:10:27.224Z,1298.00
2024-04-12T07:11:27.215Z,1307.00
2024-04-12T07:12:48.254Z,1303.00
2024-04-12T07:13:27.236Z,1297.00
2024-04-12T07:14:27.226Z,1303.00
2024-04-12T07:15:27.222Z,1334.00
2024-04-12T07:16:27.223Z,1405.00
2024-04-12T07:17:27.394Z,1398.00
2024-04-12T07:18:27.300Z,1397.00
2024-04-12T07:19:27.229Z,1380.00
2024-04-12T07:20:28.767Z,1378.00
2024-04-12T07:21:27.284Z,1391.00
2024-04-12T07:22:27.231Z,1292.00
2024-04-12T07:23:27.235Z,1328.00
2024-04-12T07:24:27.229Z,1361.00
2024-04-12T07:25:27.228Z,1391.00
2024-04-12T07:26:27.238Z,1387.00
2024-04-12T07:27:27.237Z,1380.00
2024-04-12T07:28:34.543Z,1375.00
2024-04-12T07:29:27.228Z,1369.00
2024-04-12T07:30:27.241Z,1365.00
2024-04-12T07:31:27.235Z,1367.00
2024-04-12T07:32:27.378Z,1429.00
2024-04-12T07:33:27.381Z,1447.00
2024-04-12T07:34:42.043Z,1438.00
2024-04-12T07:35:27.307Z,1434.00
2024-04-12T07:36:27.247Z,1348.00
2024-04-12T07:37:51.551Z,1410.00
2024-04-12T07:38:27.253Z,1465.00
2024-04-12T07:39:27.299Z,1444.00
2024-04-12T07:40:27.337Z,1437.00
2024-04-12T07:41:27.291Z,1455.00
2024-04-12T07:42:27.282Z,1480.00
2024-04-12T07:43:27.274Z,1495.00
2024-04-12T07:44:27.270Z,1473.00
2024-04-12T07:45:27.284Z,1467.00
2024-04-12T07:46:27.271Z,1470.00
2024-04-12T07:47:27.322Z,1481.00
2024-04-12T07:48:30.722Z,1551.00
2024-04-12T07:49:28.304Z,1560.00
2024-04-12T07:50:27.292Z,1547.00
2024-04-12T07:51:27.281Z,1551.00
2024-04-12T07:52:27.285Z,1552.00
2024-04-12T07:53:27.334Z,1551.00
2024-04-12T07:54:27.294Z,1559.00
2024-04-12T07:55:27.281Z,1557.00
2024-04-12T07:56:34.563Z,1560.00
2024-04-12T07:57:27.288Z,1563.00
2024-04-12T07:58:27.292Z,1554.00
2024-04-12T07:59:48.311Z,1555.00
2024-04-12T08:00:27.301Z,1545.00
2024-04-12T08:01:27.536Z,1538.00
2024-04-12T08:02:41.691Z,1487.00
2024-04-12T08:03:27.594Z,1481.00
2024-04-12T08:04:27.506Z,1451.00
2024-04-12T08:05:48.357Z,1500.00
2024-04-12T08:06:27.317Z,1518.00
2024-04-12T08:07:29.213Z,1518.00
2024-04-12T08:08:27.331Z,1514.00
2024-04-12T08:09:27.345Z,1516.00
2024-04-12T08:10:27.337Z,1514.00
2024-04-12T08:11:27.352Z,1512.00
2024-04-12T08:12:27.343Z,1521.00
2024-04-12T08:13:27.330Z,1510.00
2024-04-12T08:14:27.338Z,1511.00
2024-04-12T08:15:27.376Z,1528.00
2024-04-12T08:16:27.343Z,1532.00
2024-04-12T08:17:27.499Z,1531.00
2024-04-12T08:18:27.587Z,1537.00
2024-04-12T08:19:27.505Z,1540.00
2024-04-12T08:20:27.499Z,1534.00
2024-04-12T08:21:27.586Z,1435.00
2024-04-12T08:22:27.661Z,1407.00
2024-04-12T08:23:27.359Z,1397.00
2024-04-12T08:24:34.066Z,1345.00
2024-04-12T08:25:27.365Z,1346.00
2024-04-12T08:26:27.379Z,1352.00
2024-04-12T08:27:41.575Z,1345.00
2024-04-12T08:28:27.369Z,1305.00
2024-04-12T08:29:27.362Z,1276.00
2024-04-12T08:30:55.077Z,1267.00
2024-04-12T08:31:27.374Z,1263.00
2024-04-12T08:32:27.400Z,1263.00
2024-04-12T08:33:27.437Z,1251.00
2024-04-12T08:34:27.374Z,1106.00
2024-04-12T08:35:27.439Z,1080.00
2024-04-12T08:36:27.423Z,966.00
2024-04-12T08:37:27.392Z,986.00
2024-04-12T08:38:27.391Z,993.00
2024-04-12T08:39:27.418Z,1010.00
2024-04-12T08:40:27.872Z,1032.00
2024-04-12T08:41:27.391Z,1092.00
2024-04-12T08:42:27.386Z,1102.00
2024-04-12T08:43:27.383Z,1148.00
2024-04-12T08:44:27.408Z,1162.00
2024-04-12T08:45:27.394Z,1175.00
2024-04-12T08:46:27.404Z,1179.00
2024-04-12T08:47:27.448Z,1177.00
2024-04-12T08:48:27.563Z,1183.00
2024-04-12T08:49:34.583Z,1190.00
2024-04-12T08:50:27.382Z,1090.00
2024-04-12T08:51:27.385Z,1112.00
2024-04-12T08:52:38.098Z,1170.00
2024-04-12T08:53:27.403Z,1179.00
2024-04-12T08:54:27.415Z,1159.00
2024-04-12T08:55:42.083Z,1175.00
2024-04-12T08:56:27.435Z,1192.00
2024-04-12T08:57:27.594Z,1196.00
2024-04-12T08:58:53.700Z,1229.00
2024-04-12T08:59:27.406Z,1213.00
2024-04-12T09:00:28.909Z,1213.00
2024-04-12T09:01:27.460Z,1211.00
2024-04-12T09:02:27.408Z,1211.00
2024-04-12T09:03:28.117Z,1201.00
2024-04-12T09:04:27.521Z,1161.00
2024-04-12T09:05:27.416Z,1226.00
2024-04-12T09:06:27.401Z,1248.00
2024-04-12T09:07:27.411Z,1229.00
2024-04-12T09:08:29.951Z,1236.00
2024-04-12T09:09:27.488Z,1241.00
2024-04-12T09:10:27.440Z,1237.00
2024-04-12T09:11:27.490Z,1256.00
2024-04-12T09:12:27.431Z,1273.00
2024-04-12T09:13:29.306Z,1277.00
2024-04-12T09:14:30.089Z,1285.00
2024-04-12T09:15:27.446Z,1279.00
2024-04-12T09:16:27.442Z,1284.00
2024-04-12T09:17:27.684Z,1244.00
2024-04-12T09:18:28.198Z,1310.00
2024-04-12T09:19:27.716Z,1322.00
2024-04-12T09:20:27.443Z,1327.00
2024-04-12T09:21:27.563Z,1322.00
2024-04-12T09:22:27.445Z,1329.00
2024-04-12T09:23:48.476Z,1328.00
2024-04-12T09:24:27.460Z,1336.00
2024-04-12T09:25:27.537Z,1353.00
2024-04-12T09:26:27.661Z,1334.00
2024-04-12T09:27:27.483Z,1291.00
2024-04-12T09:28:27.461Z,1175.00
2024-04-12T09:29:27.456Z,1214.00
2024-04-12T09:30:27.463Z,981.00
2024-04-12T09:31:27.464Z,1078.00
2024-04-12T09:32:27.647Z,937.00
2024-04-12T09:33:27.575Z,889.00
2024-04-12T09:34:27.614Z,890.00
2024-04-12T09:35:27.478Z,916.00
2024-04-12T09:36:27.555Z,856.00
2024-04-12T09:37:27.500Z,819.00
2024-04-12T09:38:27.482Z,773.00
2024-04-12T09:39:34.103Z,733.00
2024-04-12T09:40:27.463Z,750.00
2024-04-12T09:41:27.472Z,696.00
2024-04-12T09:42:27.474Z,684.00
2024-04-12T09:43:27.485Z,700.00
2024-04-12T09:44:27.496Z,704.00
2024-04-12T09:45:34.264Z,667.00
2024-04-12T09:46:27.481Z,661.00
2024-04-12T09:47:27.655Z,652.00
2024-04-12T09:48:43.786Z,626.00
2024-04-12T09:49:27.510Z,612.00
2024-04-12T09:50:27.503Z,614.00
2024-04-12T09:51:27.590Z,610.00
2024-04-12T09:52:27.518Z,606.00
2024-04-12T09:53:27.497Z,596.00
2024-04-12T09:54:27.485Z,593.00
2024-04-12T09:55:27.491Z,586.00
2024-04-12T09:56:27.485Z,578.00
2024-04-12T09:57:27.512Z,579.00
2024-04-12T09:58:27.513Z,585.00
2024-04-12T09:59:27.493Z,578.00
2024-04-12T10:00:27.493Z,569.00
2024-04-12T10:01:27.507Z,572.00
2024-04-12T10:02:27.556Z,625.00
2024-04-12T10:03:27.592Z,632.00
2024-04-12T10:04:27.514Z,635.00
2024-04-12T10:05:27.509Z,622.00
2024-04-12T10:06:27.575Z,608.00
2024-04-12T10:07:32.645Z,589.00
2024-04-12T10:08:27.602Z,567.00
2024-04-12T10:09:27.616Z,561.00
2024-04-12T10:10:43.111Z,576.00
2024-04-12T10:11:27.681Z,591.00
2024-04-12T10:12:27.623Z,583.00
2024-04-12T10:13:42.125Z,576.00
2024-04-12T10:14:27.763Z,577.00
2024-04-12T10:15:27.809Z,575.00
2024-04-12T10:16:43.583Z,597.00
2024-04-12T10:17:27.945Z,599.00
2024-04-12T10:18:28.008Z,626.00
2024-04-12T10:19:27.887Z,608.00
2024-04-12T10:20:27.892Z,620.00
2024-04-12T10:21:27.907Z,594.00
2024-04-12T10:22:27.904Z,572.00
2024-04-12T10:23:27.900Z,558.00
2024-04-12T10:24:27.931Z,555.00
2024-04-12T10:25:27.919Z,547.00
2024-04-12T10:26:28.120Z,535.00
2024-04-12T10:27:28.177Z,531.00
2024-04-12T10:28:27.904Z,528.00
2024-04-12T10:29:27.910Z,529.00
2024-04-12T10:30:27.907Z,530.00
2024-04-12T10:31:27.914Z,532.00
2024-04-12T10:32:28.218Z,535.00
2024-04-12T10:33:28.064Z,537.00
2024-04-12T10:34:27.901Z,540.00
2024-04-12T10:35:34.625Z,541.00
2024-04-12T10:36:28.001Z,541.00
2024-04-12T10:37:27.909Z,540.00
2024-04-12T10:38:41.180Z,538.00
2024-04-12T10:39:28.982Z,539.00
2024-04-12T10:40:27.927Z,543.00
2024-04-12T10:41:51.668Z,549.00
2024-04-12T10:42:27.923Z,554.00
2024-04-12T10:43:27.919Z,558.00
2024-04-12T10:45:27.950Z,564.00
2024-04-12T10:46:27.958Z,563.00
2024-04-12T10:47:27.923Z,563.00
2024-04-12T10:48:27.974Z,566.00
2024-04-12T10:49:27.930Z,563.00
2024-04-12T10:50:27.936Z,566.00
2024-04-12T10:51:27.936Z,563.00
2024-04-12T10:52:27.958Z,562.00
2024-04-12T10:53:27.949Z,563.00
2024-04-12T10:54:27.930Z,563.00
2024-04-12T10:55:27.938Z,564.00
2024-04-12T10:56:27.964Z,565.00
2024-04-12T10:57:28.023Z,565.00
2024-04-12T10:58:27.942Z,561.00
2024-04-12T10:59:28.042Z,559.00
2024-04-12T11:00:34.742Z,557.00
2024-04-12T11:01:28.392Z,556.00
2024-04-12T11:02:28.002Z,554.00
2024-04-12T11:03:42.711Z,553.00
2024-04-12T11:04:27.995Z,549.00
2024-04-12T11:05:28.041Z,548.00
2024-04-12T11:06:48.974Z,549.00
2024-04-12T11:07:27.972Z,548.00
2024-04-12T11:08:28.170Z,548.00
2024-04-12T11:09:48.974Z,546.00
2024-04-12T11:10:27.969Z,545.00
2024-04-12T11:11:28.002Z,541.00
2024-04-12T11:12:28.160Z,541.00
2024-04-12T11:13:27.987Z,539.00
2024-04-12T11:14:27.992Z,537.00
2024-04-12T11:15:28.043Z,538.00
2024-04-12T11:16:28.008Z,534.00
2024-04-12T11:17:28.005Z,534.00
2024-04-12T11:18:28.118Z,533.00
2024-04-12T11:19:28.024Z,532.00
2024-04-12T11:20:28.006Z,532.00
2024-04-12T11:21:27.999Z,532.00
2024-04-12T11:22:28.023Z,531.00
2024-04-12T11:23:27.993Z,531.00
2024-04-12T11:24:28.003Z,532.00
2024-04-12T11:25:27.996Z,532.00
2024-04-12T11:26:28.025Z,531.00
2024-04-12T11:27:28.073Z,528.00
2024-04-12T11:28:44.171Z,530.00
2024-04-12T11:29:28.026Z,530.00
2024-04-12T11:30:28.015Z,534.00
2024-04-12T11:31:49.075Z,534.00
2024-04-12T11:32:28.020Z,534.00
2024-04-12T11:33:33.870Z,532.00
2024-04-12T11:35:00.270Z,532.00
2024-04-12T11:35:28.033Z,531.00
2024-04-12T11:36:28.031Z,530.00
2024-04-12T11:37:49.470Z,527.00
2024-04-12T11:38:28.035Z,527.00
2024-04-12T11:39:28.042Z,525.00
2024-04-12T11:40:28.050Z,524.00
2024-04-12T11:41:28.084Z,524.00
2024-04-12T11:42:28.048Z,526.00
2024-04-12T11:43:28.330Z,526.00
2024-04-12T11:44:28.129Z,524.00
2024-04-12T11:45:28.055Z,525.00
2024-04-12T11:46:28.074Z,526.00
2024-04-12T11:47:28.150Z,524.00
2024-04-12T11:48:28.186Z,520.00
2024-04-12T11:49:28.672Z,519.00
2024-04-12T11:50:28.086Z,518.00
2024-04-12T11:51:28.082Z,518.00
2024-04-12T11:52:28.086Z,516.00
2024-04-12T11:53:28.100Z,515.00
2024-04-12T11:54:28.074Z,512.00
2024-04-12T11:55:29.368Z,514.00
2024-04-12T11:56:34.720Z,513.00
2024-04-12T11:57:28.093Z,509.00
2024-04-12T11:58:28.083Z,506.00
2024-04-12T11:59:35.182Z,507.00
2024-04-12T12:00:28.107Z,501.00
2024-04-12T12:01:28.076Z,501.00
2024-04-12T12:02:56.793Z,497.00
2024-04-12T12:03:28.172Z,496.00
2024-04-12T12:04:28.167Z,497.00
2024-04-12T12:05:28.103Z,499.00
2024-04-12T12:06:28.109Z,499.00
2024-04-12T12:07:28.143Z,501.00
2024-04-12T12:08:28.088Z,507.00
2024-04-12T12:09:28.095Z,510.00
2024-04-12T12:10:28.093Z,507.00
2024-04-12T12:11:28.113Z,507.00
2024-04-12T12:12:28.699Z,505.00
2024-04-12T12:13:28.109Z,503.00
2024-04-12T12:14:28.108Z,512.00
2024-04-12T12:15:28.149Z,519.00
2024-04-12T12:16:28.137Z,525.00
2024-04-12T12:17:28.132Z,528.00
2024-04-12T12:18:28.221Z,528.00
2024-04-12T12:19:28.125Z,528.00
2024-04-12T12:20:28.130Z,526.00
2024-04-12T12:21:31.183Z,528.00
2024-04-12T12:22:28.127Z,529.00
2024-04-12T12:23:28.133Z,524.00
2024-04-12T12:24:49.472Z,488.00